createdAt,value
2018-04-13T00:00:24.951Z,3.43
2018-04-13T00:02:52.398Z,3.03
2018-04-13T00:05:19.828Z,3.00
2018-04-13T00:07:47.276Z,2.10
2018-04-13T00:10:14.723Z,2.50
2018-04-13T00:12:42.164Z,2.67
2018-04-13T00:15:09.620Z,4.00
2018-04-13T00:17:37.078Z,3.03
2018-04-13T00:20:04.636Z,5.27
2018-04-13T00:22:32.082Z,3.50
2018-04-13T00:24:59.515Z,3.40
2018-04-13T00:27:27.231Z,2.57
2018-04-13T00:29:54.635Z,2.50
2018-04-13T00:32:22.115Z,2.17
2018-04-13T00:34:49.529Z,2.40
2018-04-13T00:37:16.968Z,2.83
2018-04-13T00:39:44.410Z,3.00
2018-04-13T00:42:12.046Z,5.00
2018-04-13T00:44:39.495Z,3.50
2018-04-13T00:47:07.706Z,2.50
2018-04-13T00:49:35.130Z,2.80
2018-04-13T00:52:02.573Z,2.37
2018-04-13T00:54:29.994Z,3.57
2018-04-13T00:56:57.440Z,2.83
2018-04-13T00:59:24.876Z,2.23
2018-04-13T01:01:52.326Z,2.60
2018-04-13T01:04:19.756Z,2.53
2018-04-13T01:06:47.209Z,2.97
2018-04-13T01:09:14.652Z,2.80
2018-04-13T01:11:42.078Z,2.77
2018-04-13T01:14:09.555Z,2.60
2018-04-13T01:16:37.008Z,2.23
2018-04-13T01:19:04.432Z,2.20
2018-04-13T01:21:31.891Z,1.90
2018-04-13T01:23:59.315Z,2.97
2018-04-13T01:26:27.521Z,1.93
2018-04-13T01:28:54.963Z,2.20
2018-04-13T01:31:22.450Z,2.77
2018-04-13T01:33:49.859Z,2.80
2018-04-13T01:36:17.310Z,2.30
2018-04-13T01:38:44.740Z,2.20
2018-04-13T01:41:12.183Z,2.93
2018-04-13T01:43:39.634Z,2.50
2018-04-13T01:46:07.086Z,2.27
2018-04-13T01:48:34.603Z,3.10
2018-04-13T01:51:02.044Z,3.10
2018-04-13T01:53:29.467Z,3.40
2018-04-13T01:55:56.922Z,2.30
2018-04-13T01:58:24.372Z,2.20
2018-04-13T02:00:51.810Z,2.17
2018-04-13T02:03:19.254Z,2.60
2018-04-13T02:05:47.454Z,2.13
2018-04-13T02:08:14.895Z,1.77
2018-04-13T02:10:42.339Z,6.07
2018-04-13T02:13:09.766Z,2.40
2018-04-13T02:15:37.206Z,2.13
2018-04-13T02:18:04.636Z,2.37
2018-04-13T02:20:32.079Z,2.07
2018-04-13T02:23:00.267Z,2.47
2018-04-13T02:25:27.754Z,2.50
2018-04-13T02:27:55.223Z,3.50
2018-04-13T02:30:22.647Z,3.07
2018-04-13T02:32:50.096Z,6.20
2018-04-13T02:35:17.534Z,2.73
2018-04-13T02:37:44.958Z,2.50
2018-04-13T02:40:12.404Z,2.60
2018-04-13T02:42:39.864Z,2.73
2018-04-13T02:45:07.299Z,2.43
2018-04-13T02:47:34.741Z,2.33
2018-04-13T02:50:02.176Z,2.00
2018-04-13T02:52:30.400Z,1.97
2018-04-13T02:54:57.825Z,2.20
2018-04-13T02:57:25.283Z,2.10
2018-04-13T02:59:52.694Z,2.30
2018-04-13T03:02:20.139Z,2.00
2018-04-13T03:04:47.566Z,2.80
2018-04-13T03:07:15.007Z,1.83
2018-04-13T03:09:42.447Z,3.20
2018-04-13T03:12:10.649Z,3.20
2018-04-13T03:14:38.093Z,2.30
2018-04-13T03:17:05.542Z,3.90
2018-04-13T03:19:32.963Z,2.90
2018-04-13T03:22:00.431Z,2.70
2018-04-13T03:24:27.871Z,2.30
2018-04-13T03:26:55.323Z,2.20
2018-04-13T03:29:22.767Z,2.43
2018-04-13T03:31:50.205Z,2.43
2018-04-13T03:34:17.643Z,1.97
2018-04-13T03:36:45.076Z,1.93
2018-04-13T03:39:12.539Z,2.10
2018-04-13T03:41:39.955Z,2.37
2018-04-13T03:44:07.394Z,2.00
2018-04-13T03:46:34.839Z,2.17
2018-04-13T03:49:02.279Z,2.47
2018-04-13T03:51:29.734Z,1.87
2018-04-13T03:53:57.179Z,2.60
2018-04-13T03:56:24.603Z,2.80
2018-04-13T03:58:52.044Z,2.00
2018-04-13T04:01:19.487Z,2.30
2018-04-13T04:03:46.933Z,2.00
2018-04-13T04:06:14.362Z,2.53
2018-04-13T04:08:41.811Z,2.10
2018-04-13T04:11:09.262Z,2.07
2018-04-13T04:13:36.692Z,2.40
2018-04-13T04:16:04.135Z,2.50
2018-04-13T04:18:31.574Z,2.17
2018-04-13T04:21:11.089Z,2.73
2018-04-13T04:23:50.379Z,2.90
2018-04-13T04:26:29.610Z,3.00
2018-04-13T04:28:57.054Z,2.20
2018-04-13T04:31:24.520Z,2.60
2018-04-13T04:33:51.947Z,2.30
2018-04-13T04:36:19.390Z,2.30
2018-04-13T04:38:47.606Z,2.73
2018-04-13T04:41:15.043Z,3.17
2018-04-13T04:43:42.510Z,3.33
2018-04-13T04:46:09.924Z,3.13
2018-04-13T04:48:37.375Z,3.33
2018-04-13T04:51:04.799Z,5.43
2018-04-13T04:53:32.252Z,3.07
2018-04-13T04:55:59.694Z,3.27
2018-04-13T04:58:27.122Z,3.57
2018-04-13T05:00:55.335Z,3.03
2018-04-13T05:03:22.771Z,3.40
2018-04-13T05:05:50.218Z,3.50
2018-04-13T05:08:17.645Z,3.53
2018-04-13T05:10:45.086Z,3.00
2018-04-13T05:13:12.553Z,3.27
2018-04-13T05:15:40.007Z,2.90
2018-04-13T05:18:07.442Z,3.13
2018-04-13T05:20:34.895Z,3.67
2018-04-13T05:23:02.327Z,2.40
2018-04-13T05:25:29.886Z,2.80
2018-04-13T05:27:57.334Z,2.57
2018-04-13T05:30:24.789Z,2.17
2018-04-13T05:32:52.231Z,2.70
2018-04-13T05:35:19.747Z,3.00
2018-04-13T05:37:47.111Z,3.30
2018-04-13T05:40:14.579Z,2.83
2018-04-13T05:42:42.040Z,2.70
2018-04-13T05:45:09.474Z,2.60
2018-04-13T05:47:36.979Z,2.20
2018-04-13T05:50:04.447Z,1.80
2018-04-13T05:52:31.890Z,2.63
2018-04-13T05:54:59.323Z,2.93
2018-04-13T05:57:26.782Z,1.97
2018-04-13T05:59:54.223Z,2.53
2018-04-13T06:02:21.675Z,2.80
2018-04-13T06:04:49.142Z,1.67
2018-04-13T06:07:16.573Z,2.20
2018-04-13T06:09:44.107Z,1.50
2018-04-13T06:12:11.559Z,1.77
2018-04-13T06:14:39.003Z,1.27
2018-04-13T06:17:06.439Z,1.17
2018-04-13T06:19:33.917Z,1.33
2018-04-13T06:22:01.344Z,1.13
2018-04-13T06:24:28.825Z,1.93
2018-04-13T06:26:56.245Z,1.90
2018-04-13T06:29:23.687Z,1.97
2018-04-13T06:31:51.160Z,1.33
2018-04-13T06:34:19.138Z,1.60
2018-04-13T06:36:46.578Z,1.30
2018-04-13T06:39:14.033Z,2.00
2018-04-13T06:41:41.482Z,1.10
2018-04-13T06:44:08.928Z,2.27
2018-04-13T06:46:36.354Z,1.90
2018-04-13T06:49:03.847Z,1.57
2018-04-13T06:51:31.312Z,1.57
2018-04-13T06:53:58.972Z,1.50
2018-04-13T06:56:26.413Z,1.10
2018-04-13T06:58:53.859Z,0.90
2018-04-13T07:01:23.404Z,1.60
2018-04-13T07:03:50.872Z,1.10
2018-04-13T07:06:18.320Z,1.50
2018-04-13T07:08:45.784Z,1.00
2018-04-13T07:11:13.231Z,2.00
2018-04-13T07:13:40.736Z,2.00
2018-04-13T07:16:08.218Z,0.93
2018-04-13T07:18:35.659Z,0.93
2018-04-13T07:21:03.103Z,1.00
2018-04-13T07:23:30.543Z,0.93
2018-04-13T07:25:57.982Z,0.77
2018-04-13T07:28:25.484Z,0.73
2018-04-13T07:30:52.908Z,0.80
2018-04-13T07:33:20.378Z,0.80
2018-04-13T07:35:47.873Z,0.93
2018-04-13T07:38:15.343Z,1.10
2018-04-13T07:40:42.794Z,0.70
2018-04-13T07:43:10.219Z,1.00
2018-04-13T07:45:37.793Z,1.20
2018-04-13T07:48:05.153Z,1.10
2018-04-13T07:50:32.598Z,0.70
2018-04-13T07:53:00.036Z,1.10
2018-04-13T07:55:27.479Z,0.70
2018-04-13T07:57:54.943Z,1.10
2018-04-13T08:00:22.437Z,1.00
2018-04-13T08:02:51.259Z,1.70
2018-04-13T08:05:18.167Z,1.20
2018-04-13T08:07:46.393Z,1.83
2018-04-13T08:10:14.326Z,1.00
2018-04-13T08:12:41.333Z,2.13
2018-04-13T08:15:08.779Z,1.57
2018-04-13T08:17:36.230Z,0.90
2018-04-13T08:20:03.682Z,1.30
2018-04-13T08:22:32.046Z,1.40
2018-04-13T08:24:59.501Z,1.30
2018-04-13T08:27:27.006Z,1.50
2018-04-13T08:29:54.524Z,0.90
2018-04-13T08:32:21.977Z,0.60
2018-04-13T08:34:49.505Z,0.77
2018-04-13T08:37:17.746Z,1.23
2018-04-13T08:39:45.178Z,1.07
2018-04-13T08:42:12.685Z,1.10
2018-04-13T08:44:40.157Z,0.70
2018-04-13T08:47:07.595Z,1.30
2018-04-13T08:49:35.097Z,1.43
2018-04-13T08:52:02.556Z,0.63
2018-04-13T08:54:30.043Z,1.20
2018-04-13T08:56:57.554Z,2.43
2018-04-13T08:59:25.000Z,0.70
2018-04-13T09:01:53.272Z,0.80
2018-04-13T09:04:20.725Z,0.80
2018-04-13T09:06:48.181Z,2.23
2018-04-13T09:09:15.696Z,0.67
2018-04-13T09:11:43.133Z,0.90
2018-04-13T09:14:10.629Z,1.20
2018-04-13T09:16:38.140Z,0.80
2018-04-13T09:19:05.627Z,0.60
2018-04-13T09:21:33.073Z,0.60
2018-04-13T09:24:00.594Z,0.80
2018-04-13T09:26:28.017Z,1.10
2018-04-13T09:28:55.489Z,1.97
2018-04-13T09:31:23.007Z,0.90
2018-04-13T09:33:50.496Z,5.27
2018-04-13T09:36:17.989Z,0.87
2018-04-13T09:38:45.519Z,1.73
2018-04-13T09:41:13.782Z,0.77
2018-04-13T09:43:41.254Z,0.70
2018-04-13T09:46:08.742Z,1.57
2018-04-13T09:48:36.185Z,1.20
2018-04-13T09:51:03.643Z,1.13
2018-04-13T09:53:31.181Z,0.97
2018-04-13T09:55:59.458Z,1.30
2018-04-13T09:58:26.920Z,1.03
2018-04-13T10:01:00.308Z,1.00
2018-04-13T10:03:27.781Z,7.83
2018-04-13T10:05:55.984Z,1.20
2018-04-13T10:08:23.435Z,4.00
2018-04-13T10:10:50.965Z,0.80
2018-04-13T10:13:18.413Z,0.90
2018-04-13T10:15:45.884Z,0.80
2018-04-13T10:18:13.297Z,4.13
2018-04-13T10:20:41.508Z,0.90
2018-04-13T10:23:08.964Z,0.70
2018-04-13T10:25:36.507Z,1.03
2018-04-13T10:28:03.932Z,0.80
2018-04-13T10:30:31.430Z,0.93
2018-04-13T10:32:58.911Z,0.80
2018-04-13T10:35:26.433Z,1.10
2018-04-13T10:37:53.911Z,1.43
2018-04-13T10:40:21.367Z,0.70
2018-04-13T10:42:48.808Z,0.97
2018-04-13T10:45:16.296Z,0.80
2018-04-13T10:47:43.739Z,0.90
2018-04-13T10:50:11.208Z,1.03
2018-04-13T10:52:38.664Z,1.10
2018-04-13T10:55:06.104Z,1.17
2018-04-13T10:57:33.584Z,1.07
2018-04-13T11:00:01.090Z,1.13
2018-04-13T11:02:28.603Z,1.57
2018-04-13T11:04:56.064Z,1.20
2018-04-13T11:07:24.350Z,0.70
2018-04-13T11:09:51.803Z,1.30
2018-04-13T11:12:19.303Z,2.77
2018-04-13T11:14:46.747Z,2.50
2018-04-13T11:17:14.218Z,2.63
2018-04-13T11:19:41.920Z,2.27
2018-04-13T11:22:09.480Z,2.83
2018-04-13T11:24:36.935Z,2.70
2018-04-13T11:27:04.403Z,2.70
2018-04-13T11:29:32.601Z,2.60
2018-04-13T11:32:00.070Z,2.47
2018-04-13T11:34:27.511Z,3.20
2018-04-13T11:36:55.810Z,3.90
2018-04-13T11:39:23.290Z,4.13
2018-04-13T11:41:50.730Z,4.17
2018-04-13T11:44:18.241Z,4.30
2018-04-13T11:46:46.499Z,5.77
2018-04-13T11:49:13.952Z,3.10
2018-04-13T11:51:41.391Z,3.50
2018-04-13T11:54:08.859Z,4.07
2018-04-13T11:56:36.330Z,4.00
2018-04-13T11:59:03.783Z,3.20
2018-04-13T12:01:31.272Z,3.87
2018-04-13T12:03:59.530Z,3.97
2018-04-13T12:06:27.025Z,3.80
2018-04-13T12:08:54.490Z,2.87
2018-04-13T12:11:21.984Z,4.37
2018-04-13T12:13:49.471Z,2.23
2018-04-13T12:16:17.744Z,2.13
2018-04-13T12:18:45.195Z,2.20
2018-04-13T12:21:12.687Z,2.03
2018-04-13T12:23:40.383Z,2.23
2018-04-13T12:26:07.851Z,2.67
2018-04-13T12:28:35.313Z,2.40
2018-04-13T12:31:02.789Z,2.37
2018-04-13T12:33:30.294Z,2.07
2018-04-13T12:35:57.719Z,2.17
2018-04-13T12:38:25.198Z,2.03
2018-04-13T12:40:52.606Z,2.20
2018-04-13T12:43:20.103Z,2.27
2018-04-13T12:45:47.754Z,1.93
2018-04-13T12:48:15.203Z,1.60
2018-04-13T12:50:42.682Z,1.60
2018-04-13T12:53:10.161Z,2.00
2018-04-13T12:55:37.653Z,1.73
2018-04-13T12:58:05.069Z,1.63
2018-04-13T13:00:32.550Z,1.97
2018-04-13T13:03:00.038Z,2.43
2018-04-13T13:05:27.485Z,2.30
2018-04-13T13:07:54.965Z,3.20
2018-04-13T13:10:22.448Z,1.60
2018-04-13T13:12:49.880Z,1.40
2018-04-13T13:15:18.140Z,1.23
2018-04-13T13:17:45.591Z,1.60
2018-04-13T13:20:13.057Z,1.60
2018-04-13T13:22:40.528Z,1.40
2018-04-13T13:25:07.958Z,1.50
2018-04-13T13:27:35.404Z,1.53
2018-04-13T13:30:02.953Z,2.13
2018-04-13T13:32:30.396Z,1.73
2018-04-13T13:34:58.059Z,1.70
2018-04-13T13:37:25.492Z,1.63
2018-04-13T13:39:53.706Z,1.07
2018-04-13T13:42:21.171Z,1.20
2018-04-13T13:44:48.603Z,1.40
2018-04-13T13:47:16.055Z,1.70
2018-04-13T13:49:43.479Z,1.57
2018-04-13T13:52:10.974Z,1.73
2018-04-13T13:54:38.395Z,1.80
2018-04-13T13:57:05.886Z,1.60
2018-04-13T13:59:33.313Z,1.13
2018-04-13T14:02:00.748Z,2.50
2018-04-13T14:04:28.199Z,5.00
2018-04-13T14:06:55.660Z,5.73
2018-04-13T14:09:23.094Z,6.53
2018-04-13T14:11:50.552Z,6.40
2018-04-13T14:14:18.987Z,5.90
2018-04-13T14:16:46.411Z,5.40
2018-04-13T14:19:14.640Z,4.80
2018-04-13T14:21:42.085Z,5.20
2018-04-13T14:24:09.547Z,4.53
2018-04-13T14:26:36.995Z,4.37
2018-04-13T14:29:04.419Z,3.80
2018-04-13T14:31:31.864Z,2.73
2018-04-13T14:33:59.319Z,2.90
2018-04-13T14:36:26.767Z,3.30
2018-04-13T14:38:54.197Z,4.00
2018-04-13T14:41:21.667Z,3.50
2018-04-13T14:43:49.116Z,3.20
2018-04-13T14:46:16.659Z,3.63
2018-04-13T14:48:44.079Z,3.07
2018-04-13T14:51:11.519Z,3.33
2018-04-13T14:53:38.974Z,2.57
2018-04-13T14:56:06.404Z,2.97
2018-04-13T14:58:33.863Z,3.80
2018-04-13T15:01:01.576Z,2.80
2018-04-13T15:03:28.983Z,3.27
2018-04-13T15:05:56.433Z,2.80
2018-04-13T15:08:23.874Z,2.77
2018-04-13T15:10:51.333Z,3.80
2018-04-13T15:13:18.775Z,3.10
2018-04-13T15:15:46.234Z,3.37
2018-04-13T15:18:13.672Z,2.93
2018-04-13T15:20:41.921Z,2.80
2018-04-13T15:23:09.383Z,3.77
2018-04-13T15:25:36.823Z,4.03
2018-04-13T15:28:04.267Z,3.37
2018-04-13T15:30:31.720Z,3.57
2018-04-13T15:32:59.163Z,3.57
2018-04-13T15:35:26.620Z,3.60
2018-04-13T15:37:54.049Z,3.90
2018-04-13T15:40:21.628Z,3.30
2018-04-13T15:42:49.019Z,3.67
2018-04-13T15:45:16.508Z,4.23
2018-04-13T15:47:43.995Z,5.03
2018-04-13T15:50:11.425Z,3.73
2018-04-13T15:52:38.868Z,3.90
2018-04-13T15:55:06.304Z,5.60
2018-04-13T15:57:33.752Z,4.03
2018-04-13T16:00:01.175Z,5.03
2018-04-13T16:02:28.636Z,4.60
2018-04-13T16:04:56.061Z,4.80
2018-04-13T16:07:23.511Z,5.53
2018-04-13T16:09:50.952Z,5.83
2018-04-13T16:12:18.407Z,5.87
2018-04-13T16:14:45.848Z,5.70
2018-04-13T16:17:13.312Z,7.50
2018-04-13T16:19:40.764Z,5.13
2018-04-13T16:22:08.224Z,7.00
2018-04-13T16:24:35.643Z,6.37
2018-04-13T16:27:03.082Z,6.17
2018-04-13T16:29:31.288Z,5.50
2018-04-13T16:31:58.726Z,5.70
2018-04-13T16:34:26.206Z,6.80
2018-04-13T16:36:53.661Z,4.80
2018-04-13T16:39:21.075Z,6.03
2018-04-13T16:41:48.524Z,6.47
2018-04-13T16:44:16.006Z,6.70
2018-04-13T16:46:43.499Z,6.13
2018-04-13T16:49:10.940Z,4.70
2018-04-13T16:51:38.414Z,6.37
2018-04-13T16:54:05.862Z,5.97
2018-04-13T16:56:33.299Z,5.70
2018-04-13T16:59:00.819Z,6.10
2018-04-13T17:01:28.256Z,5.77
2018-04-13T17:03:55.708Z,6.40
2018-04-13T17:06:23.163Z,6.43
2018-04-13T17:08:50.630Z,6.00
2018-04-13T17:11:18.084Z,7.17
2018-04-13T17:13:45.543Z,7.47
2018-04-13T17:16:12.999Z,6.70
2018-04-13T17:18:40.438Z,6.23
2018-04-13T17:21:07.870Z,6.03
2018-04-13T17:23:35.328Z,5.97
2018-04-13T17:26:02.772Z,6.23
2018-04-13T17:28:30.215Z,7.20
2018-04-13T17:30:57.679Z,7.90
2018-04-13T17:33:25.964Z,7.90
2018-04-13T17:35:54.151Z,7.37
2018-04-13T17:38:21.628Z,7.03
2018-04-13T17:40:49.055Z,7.10
2018-04-13T17:43:16.487Z,6.90
2018-04-13T17:45:43.919Z,7.20
2018-04-13T17:48:11.376Z,9.70
2018-04-13T17:50:38.863Z,6.90
2018-04-13T17:53:06.393Z,7.10
2018-04-13T17:55:33.806Z,6.80
2018-04-13T17:58:01.256Z,6.17
2018-04-13T18:00:28.748Z,6.80
2018-04-13T18:02:56.247Z,7.17
2018-04-13T18:05:23.720Z,7.00
2018-04-13T18:07:51.205Z,7.17
2018-04-13T18:10:18.669Z,7.73
2018-04-13T18:12:46.118Z,7.50
2018-04-13T18:15:13.780Z,7.10
2018-04-13T18:17:41.226Z,6.60
2018-04-13T18:20:08.663Z,7.50
2018-04-13T18:22:36.163Z,10.00
2018-04-13T18:25:03.625Z,8.90
2018-04-13T18:27:31.066Z,6.73
2018-04-13T18:29:58.496Z,6.90
2018-04-13T18:32:25.950Z,8.03
2018-04-13T18:34:53.447Z,7.70
2018-04-13T18:37:20.957Z,7.90
2018-04-13T18:39:48.459Z,6.80
2018-04-13T18:42:15.922Z,7.63
2018-04-13T18:44:43.377Z,7.20
2018-04-13T18:47:10.831Z,6.87
2018-04-13T18:49:38.267Z,7.17
2018-04-13T19:45:28.072Z,7.87
2018-04-13T19:47:55.466Z,8.63
2018-04-13T19:50:22.911Z,8.47
2018-04-13T19:52:50.355Z,10.50
2018-04-13T19:55:17.799Z,8.20
2018-04-13T19:57:45.276Z,7.77
2018-04-13T20:00:12.682Z,8.07
2018-04-13T20:02:40.153Z,7.70
2018-04-13T20:05:07.579Z,8.10
2018-04-13T20:07:35.033Z,7.97
2018-04-13T20:10:02.475Z,9.13
2018-04-13T20:12:29.903Z,8.43
2018-04-13T20:14:58.128Z,7.93
2018-04-13T20:17:25.597Z,7.27
2018-04-13T20:19:53.026Z,7.50
2018-04-13T20:22:20.459Z,6.83
2018-04-13T20:24:47.904Z,6.93
2018-04-13T20:27:15.339Z,6.83
2018-04-13T20:29:42.780Z,6.40
2018-04-13T20:32:10.231Z,5.77
2018-04-13T20:34:37.671Z,5.63
2018-04-13T20:37:05.128Z,6.07
2018-04-13T20:39:32.603Z,5.27
2018-04-13T20:42:00.066Z,5.60
2018-04-13T20:44:27.494Z,6.00
2018-04-13T20:46:54.922Z,4.60
2018-04-13T20:49:22.381Z,6.20
2018-04-13T20:51:49.834Z,6.17
2018-04-13T20:54:17.267Z,5.10
2018-04-13T20:56:44.724Z,4.33
2018-04-13T20:59:12.162Z,3.87
2018-04-13T21:01:39.646Z,3.80
2018-04-13T21:04:07.096Z,3.67
2018-04-13T21:06:34.556Z,3.40
2018-04-13T21:09:01.995Z,3.90
2018-04-13T21:11:29.505Z,4.30
2018-04-13T21:13:57.713Z,3.97
2018-04-13T21:16:25.146Z,4.60
2018-04-13T21:18:52.605Z,4.60
2018-04-13T21:21:20.042Z,4.93
2018-04-13T21:23:47.495Z,5.20
2018-04-13T21:26:15.691Z,6.07
2018-04-13T21:28:43.134Z,6.80
2018-04-13T21:31:11.407Z,8.73
2018-04-13T21:33:38.842Z,7.47
2018-04-13T21:36:06.297Z,7.63
2018-04-13T21:38:33.737Z,9.67
2018-04-13T21:41:01.182Z,8.90
2018-04-13T21:43:28.614Z,5.97
2018-04-13T21:45:56.067Z,6.60
2018-04-13T21:48:23.507Z,6.93
2018-04-13T21:50:51.721Z,8.00
2018-04-13T21:53:19.178Z,8.10
2018-04-13T21:55:46.637Z,8.47
2018-04-13T21:58:14.061Z,9.30
2018-04-13T22:00:41.517Z,10.30
2018-04-13T22:03:08.977Z,10.17
2018-04-13T22:05:37.183Z,10.10
2018-04-13T22:08:04.641Z,11.67
2018-04-13T22:10:32.079Z,11.30
2018-04-13T22:13:11.366Z,12.90
2018-04-13T22:15:38.819Z,13.20
2018-04-13T22:18:06.303Z,12.70
2018-04-13T22:20:33.742Z,13.80
2018-04-13T22:23:01.182Z,14.20
2018-04-13T22:25:28.648Z,15.67
2018-04-13T22:27:56.083Z,13.33
2018-04-13T22:30:23.551Z,14.53
2018-04-13T22:32:51.007Z,14.63
2018-04-13T22:35:18.491Z,15.63
2018-04-13T22:37:45.920Z,14.43
2018-04-13T22:40:13.390Z,12.50
2018-04-13T22:42:40.814Z,13.60
2018-04-13T22:45:08.272Z,13.43
2018-04-13T22:47:35.730Z,14.40
2018-04-13T22:50:03.188Z,14.03
2018-04-13T22:52:30.656Z,15.47
2018-04-13T22:54:58.087Z,15.77
2018-04-13T22:57:25.543Z,16.33
2018-04-13T22:59:52.974Z,16.93
2018-04-13T23:02:20.449Z,17.17
2018-04-13T23:04:47.889Z,16.30
2018-04-13T23:07:15.338Z,17.37
2018-04-13T23:09:42.799Z,16.23
2018-04-13T23:12:11.043Z,17.73
2018-04-13T23:14:38.482Z,17.97
2018-04-13T23:17:05.927Z,18.20
2018-04-13T23:19:33.370Z,19.57
2018-04-13T23:22:00.815Z,19.60
2018-04-13T23:24:28.262Z,20.47
2018-04-13T23:26:56.481Z,21.50
2018-04-13T23:29:23.947Z,21.60
2018-04-13T23:31:51.392Z,21.70
2018-04-13T23:34:18.834Z,21.37
2018-04-13T23:36:46.286Z,23.80
2018-04-13T23:39:13.739Z,22.77
2018-04-13T23:41:41.186Z,23.97
2018-04-13T23:44:09.396Z,24.07
2018-04-13T23:46:36.847Z,26.53
2018-04-13T23:49:04.282Z,28.80
2018-04-13T23:51:31.734Z,22.43
2018-04-13T23:53:59.187Z,21.17
2018-04-13T23:56:26.642Z,25.70
2018-04-13T23:58:54.854Z,24.63
